Beatty, Nevada
Current Conditions -  °F | °C
As of 1:52 AM on Friday 24 Oct 2014 (Local Time) from KDRA Reporting Station
Clear Clear  
Wind Chill: 14°   Ceiling: Unl
Heat Index: 14°   Visibility: 10mi
Dew Point: -1°   Wind: 6mph
Humidity: 36%   Direction: 30°NNE
Pressure: 30.09"   Gusts: NA
Location:  36.91°N, 116.76°W
Report Text: KDRA 240852Z AUTO 03005KT 10SM CLR 14/M01 A3009 RMK AO2 SLP151 T01391011 51004
Loading
Personal Weather Stations






























Interactive Weather Map
Tropical Storm Tracking
New forecast layout! Learn more

10-Day Weather Forecast

Advertisements
Track Severe Weather on mobile